createdAt,value
2023-02-05T00:01:18.631Z,-2.80
2023-02-05T00:06:23.364Z,-2.90
2023-02-05T00:11:26.821Z,-3.10
2023-02-05T00:16:30.561Z,-3.30
2023-02-05T00:21:35.252Z,-3.30
2023-02-05T00:26:38.943Z,-3.30
2023-02-05T00:31:42.580Z,-3.50
2023-02-05T00:36:47.302Z,-3.50
2023-02-05T00:41:50.853Z,-3.60
2023-02-05T00:46:54.092Z,-3.60
2023-02-05T00:51:58.909Z,-3.70
2023-02-05T00:57:02.087Z,-3.90
2023-02-05T01:02:05.440Z,-4.10
2023-02-05T01:07:10.025Z,-4.10
2023-02-05T01:12:16.771Z,-4.20
2023-02-05T01:17:20.478Z,-4.30
2023-02-05T01:22:25.412Z,-4.20
2023-02-05T01:27:28.645Z,-4.40
2023-02-05T01:32:32.559Z,-4.40
2023-02-05T01:37:37.318Z,-4.40
2023-02-05T01:42:40.899Z,-4.60
2023-02-05T01:47:44.521Z,-4.50
2023-02-05T01:52:50.148Z,-4.40
2023-02-05T01:57:53.970Z,-4.60
2023-02-05T02:02:58.512Z,-4.70
2023-02-05T02:08:03.547Z,-4.60
2023-02-05T02:13:06.976Z,-4.60
2023-02-05T02:18:28.360Z,-4.60
2023-02-05T02:23:45.469Z,-4.60
2023-02-05T02:28:52.228Z,-4.60
2023-02-05T02:34:01.365Z,-4.70
2023-02-05T02:39:11.776Z,-4.70
2023-02-05T02:44:21.540Z,-4.80
2023-02-05T02:49:29.183Z,-4.80
2023-02-05T02:54:34.174Z,-4.90
2023-02-05T02:59:40.811Z,-5.00
2023-02-05T03:04:51.008Z,-4.90
2023-02-05T03:10:02.014Z,-4.90
2023-02-05T03:15:10.461Z,-4.90
2023-02-05T03:20:18.739Z,-4.80
2023-02-05T03:25:23.493Z,-4.70
2023-02-05T03:30:38.291Z,-4.70
2023-02-05T03:35:47.298Z,-4.80
2023-02-05T03:40:55.415Z,-4.70
2023-02-05T03:46:05.327Z,-4.60
2023-02-05T03:51:22.898Z,-4.70
2023-02-05T03:56:32.530Z,-4.80
2023-02-05T04:01:37.853Z,-4.60
2023-02-05T04:06:41.241Z,-4.70
2023-02-05T04:11:44.679Z,-4.60
2023-02-05T04:16:49.794Z,-4.60
2023-02-05T04:21:54.477Z,-4.50
2023-02-05T04:26:58.281Z,-4.60
2023-02-05T04:32:02.911Z,-4.60
2023-02-05T04:37:06.276Z,-4.40
2023-02-05T04:42:09.682Z,-4.40
2023-02-05T04:47:14.815Z,-4.30
2023-02-05T04:52:18.142Z,-4.20
2023-02-05T04:57:21.548Z,-4.10
2023-02-05T05:02:26.264Z,-4.10
2023-02-05T05:07:30.095Z,-4.10
2023-02-05T05:12:33.513Z,-4.20
2023-02-05T05:17:38.140Z,-4.10
2023-02-05T05:22:41.359Z,-4.00
2023-02-05T05:27:44.692Z,-4.00
2023-02-05T05:32:49.500Z,-4.10
2023-02-05T05:37:52.653Z,-4.20
2023-02-05T05:43:14.462Z,-4.20
2023-02-05T05:48:19.102Z,-4.20
2023-02-05T05:53:23.061Z,-4.20
2023-02-05T05:58:26.447Z,-4.10
2023-02-05T06:03:31.003Z,-4.30
2023-02-05T06:08:34.932Z,-4.30
2023-02-05T06:13:38.313Z,-4.10
2023-02-05T06:18:42.953Z,-3.90
2023-02-05T06:23:46.231Z,-4.00
2023-02-05T06:28:49.833Z,-3.90
2023-02-05T06:33:54.349Z,-3.80
2023-02-05T06:38:57.483Z,-3.80
2023-02-05T06:44:00.778Z,-3.60
2023-02-05T06:49:05.340Z,-3.50
2023-02-05T06:54:08.556Z,-3.30
2023-02-05T06:59:11.844Z,-3.20
2023-02-05T07:04:16.414Z,-3.20
2023-02-05T07:09:19.630Z,-3.20
2023-02-05T07:14:22.857Z,-3.20
2023-02-05T07:19:27.538Z,-3.00
2023-02-05T07:24:30.970Z,-2.90
2023-02-05T07:29:34.516Z,-2.80
2023-02-05T07:34:39.284Z,-2.80
2023-02-05T07:39:42.798Z,-2.80
2023-02-05T07:44:45.973Z,-2.70
2023-02-05T07:49:50.771Z,-2.50
2023-02-05T07:54:54.129Z,-2.40
2023-02-05T07:59:57.256Z,-2.20
2023-02-05T08:05:01.878Z,-2.10
2023-02-05T08:10:05.789Z,-1.90
2023-02-05T08:15:09.907Z,-1.80
2023-02-05T08:20:14.865Z,-1.60
2023-02-05T08:25:18.142Z,-1.40
2023-02-05T08:30:21.795Z,-1.40
2023-02-05T08:35:26.494Z,-1.10
2023-02-05T08:40:30.099Z,-1.00
2023-02-05T08:45:33.753Z,-0.90
2023-02-05T08:50:39.301Z,-0.70
2023-02-05T08:55:43.228Z,-0.60
2023-02-05T09:00:46.537Z,-0.60
2023-02-05T09:05:51.127Z,-0.40
2023-02-05T09:10:54.618Z,-0.40
2023-02-05T09:15:57.958Z,-0.30
2023-02-05T09:21:06.909Z,-0.20
2023-02-05T09:26:10.321Z,-0.10
2023-02-05T09:31:17.116Z,-0.10
2023-02-05T09:36:23.677Z,0.30
2023-02-05T09:41:32.760Z,0.50
2023-02-05T09:46:40.788Z,0.60
2023-02-05T09:51:47.910Z,0.80
2023-02-05T09:56:54.679Z,1.00
2023-02-05T10:02:00.637Z,1.30
2023-02-05T10:07:18.064Z,1.60
2023-02-05T10:12:33.840Z,1.90
2023-02-05T10:17:49.289Z,1.80
2023-02-05T10:23:09.457Z,2.10
2023-02-05T10:28:27.028Z,2.40
2023-02-05T10:33:41.716Z,2.40
2023-02-05T10:38:46.719Z,2.20
2023-02-05T10:43:54.080Z,2.20
2023-02-05T10:49:01.317Z,2.20
2023-02-05T10:54:15.181Z,2.30
2023-02-05T10:59:25.269Z,2.60
2023-02-05T11:04:35.028Z,2.60
2023-02-05T11:09:39.738Z,2.90
2023-02-05T11:14:45.853Z,2.90
2023-02-05T11:19:54.349Z,2.80
2023-02-05T11:25:16.786Z,2.80
2023-02-05T11:30:55.662Z,2.90
2023-02-05T11:35:55.112Z,2.80
2023-02-05T11:41:02.700Z,2.40
2023-02-05T11:46:08.786Z,2.50
2023-02-05T11:51:15.316Z,2.70
2023-02-05T11:56:25.364Z,2.90
2023-02-05T12:01:33.869Z,2.80
2023-02-05T12:06:42.524Z,2.80
2023-02-05T12:12:06.835Z,2.80
2023-02-05T12:17:31.732Z,3.00
2023-02-05T12:22:56.725Z,2.80
2023-02-05T12:28:18.353Z,2.70
2023-02-05T12:33:36.530Z,2.80
2023-02-05T12:38:53.665Z,3.00
2023-02-05T12:44:12.628Z,3.00
2023-02-05T12:49:37.152Z,3.20
2023-02-05T12:54:52.197Z,2.80
2023-02-05T13:00:00.813Z,3.30
2023-02-05T13:05:16.311Z,3.40
2023-02-05T13:10:26.966Z,3.20
2023-02-05T13:15:36.676Z,3.20
2023-02-05T13:21:01.304Z,3.50
2023-02-05T13:26:24.713Z,3.30
2023-02-05T13:31:33.002Z,3.60
2023-02-05T13:37:14.904Z,4.00
2023-02-05T13:42:45.672Z,4.50
2023-02-05T13:48:08.555Z,4.80
2023-02-05T13:53:26.377Z,5.60
2023-02-05T13:58:32.456Z,4.30
2023-02-05T14:03:39.315Z,3.60
2023-02-05T14:08:43.287Z,3.40
2023-02-05T14:14:21.426Z,3.50
2023-02-05T14:19:42.872Z,3.20
2023-02-05T14:24:50.108Z,2.70
2023-02-05T14:29:53.807Z,2.50
2023-02-05T14:35:02.200Z,2.50
2023-02-05T14:40:24.889Z,2.20
2023-02-05T14:45:28.967Z,2.10
2023-02-05T14:50:33.590Z,2.00
2023-02-05T14:55:40.292Z,1.70
2023-02-05T15:00:44.284Z,1.70
2023-02-05T15:05:56.632Z,1.40
2023-02-05T15:11:07.718Z,1.30
2023-02-05T15:16:20.159Z,1.20
2023-02-05T15:21:28.796Z,1.00
2023-02-05T15:26:41.976Z,0.90
2023-02-05T15:31:48.381Z,0.50
2023-02-05T15:36:56.205Z,0.20
2023-02-05T15:42:01.910Z,-0.10
2023-02-05T15:47:12.164Z,-0.20
2023-02-05T15:52:22.225Z,-0.50
2023-02-05T15:57:28.332Z,-0.80
2023-02-05T16:02:31.623Z,-1.10
2023-02-05T16:07:41.220Z,-1.00
2023-02-05T16:12:57.875Z,-1.30
2023-02-05T16:18:04.621Z,-1.50
2023-02-05T16:23:18.283Z,-1.70
2023-02-05T16:28:24.632Z,-1.60
2023-02-05T16:33:33.104Z,-1.60
2023-02-05T16:38:37.870Z,-1.50
2023-02-05T16:43:41.400Z,-1.50
2023-02-05T16:48:50.985Z,-1.80
2023-02-05T16:53:55.608Z,-2.00
2023-02-05T16:59:01.952Z,-2.00
2023-02-05T17:04:05.841Z,-1.80
2023-02-05T17:09:32.626Z,-1.50
2023-02-05T17:14:35.973Z,-1.70
2023-02-05T17:19:39.765Z,-1.90
2023-02-05T17:24:46.178Z,-2.00
2023-02-05T17:29:50.138Z,-2.20
2023-02-05T17:34:53.461Z,-2.40
2023-02-05T17:39:58.080Z,-2.50
2023-02-05T17:45:01.330Z,-2.70
2023-02-05T17:50:05.774Z,-2.70
2023-02-05T17:55:14.725Z,-2.80
2023-02-05T18:00:20.662Z,-2.80
2023-02-05T18:05:24.301Z,-3.10
2023-02-05T18:10:34.238Z,-3.20
2023-02-05T18:15:38.010Z,-3.10
2023-02-05T18:20:41.497Z,-3.40
2023-02-05T18:25:46.098Z,-3.40
2023-02-05T18:30:57.319Z,-3.40
2023-02-05T18:36:02.522Z,-3.40
2023-02-05T18:41:09.581Z,-3.60
2023-02-05T18:46:14.623Z,-3.80
2023-02-05T18:51:19.788Z,-3.70
2023-02-05T18:56:25.763Z,-3.70
2023-02-05T19:01:30.207Z,-3.70
2023-02-05T19:06:34.194Z,-3.80
2023-02-05T19:11:43.385Z,-3.60
2023-02-05T19:16:48.198Z,-3.90
2023-02-05T19:21:53.424Z,-3.70
2023-02-05T19:26:59.260Z,-4.00
2023-02-05T19:32:05.260Z,-3.90
2023-02-05T19:37:12.014Z,-3.90
2023-02-05T19:42:17.317Z,-3.90
2023-02-05T19:47:21.607Z,-4.00
2023-02-05T19:52:25.464Z,-4.00
2023-02-05T19:57:30.101Z,-4.20
2023-02-05T20:02:35.458Z,-4.20
2023-02-05T20:07:39.494Z,-4.20
2023-02-05T20:12:44.688Z,-4.40
2023-02-05T20:17:49.281Z,-4.50
2023-02-05T20:22:54.144Z,-4.70
2023-02-05T20:27:58.626Z,-4.60
2023-02-05T20:33:01.896Z,-4.80
2023-02-05T20:38:05.406Z,-4.80
2023-02-05T20:43:10.032Z,-4.70
2023-02-05T20:48:13.246Z,-4.80
2023-02-05T20:53:17.367Z,-4.80
2023-02-05T20:58:22.420Z,-4.70
2023-02-05T21:03:25.892Z,-4.70
2023-02-05T21:08:29.322Z,-4.60
2023-02-05T21:13:35.262Z,-4.60
2023-02-05T21:18:40.281Z,-4.70
2023-02-05T21:23:43.433Z,-4.80
2023-02-05T21:28:51.380Z,-4.80
2023-02-05T21:33:54.590Z,-4.60
2023-02-05T21:38:58.063Z,-4.70
2023-02-05T21:44:02.665Z,-4.80
2023-02-05T21:49:06.228Z,-4.70
2023-02-05T21:54:10.881Z,-4.80
2023-02-05T21:59:15.899Z,-5.00
2023-02-05T22:04:19.483Z,-4.90
2023-02-05T22:09:23.204Z,-4.90
2023-02-05T22:14:27.854Z,-5.00
2023-02-05T22:19:31.074Z,-5.00
2023-02-05T22:24:34.268Z,-5.10
2023-02-05T22:29:39.022Z,-5.00
2023-02-05T22:34:43.631Z,-5.00
2023-02-05T22:39:48.055Z,-5.00
2023-02-05T22:44:53.991Z,-5.20
2023-02-05T22:49:57.197Z,-5.30
2023-02-05T22:55:00.415Z,-5.30
2023-02-05T23:00:05.843Z,-5.20
2023-02-05T23:05:09.222Z,-5.20
2023-02-05T23:10:13.944Z,-5.20
2023-02-05T23:15:19.398Z,-5.30
2023-02-05T23:20:22.847Z,-5.30
2023-02-05T23:25:26.198Z,-5.30
2023-02-05T23:30:31.156Z,-5.20
2023-02-05T23:35:35.030Z,-5.20
2023-02-05T23:40:38.554Z,-5.30
2023-02-05T23:45:43.765Z,-5.20
2023-02-05T23:50:49.517Z,-5.40
2023-02-05T23:55:53.579Z,-5.30
